首页
METAR-TAF:

METAR-TAF

机场 :

杜布罗夫尼克机场

杜布羅夫尼克, 克罗地亚

纬度: 42-34N, 经度: 018-16E, 海拔: 157米

当前天气观测

该预报发布于39分钟前的08:30 UTC
风速5节,风向东转东南,在南转南东之间变化
温度 21°C
湿度 73%
气压 1019 hPa
能见度10公里或以上
1500米以下无云,无积雨云

METAR: LDDU 170830Z 12005KT 090V150 CAVOK 21/16 Q1019 NOSIG

时间: 11:09 (09:09 UTC)

预报

该预报发布于3小时和44分钟前的05:25 UTC
预报有效从17日的 06点(UTC)到 18日的 06点(UTC)
风速6节,风向
能见度10公里或以上
1500米以下无云,无积雨云
成为
从 17日的 08点(UTC)到 17日的 10点(UTC)
风速6节,风向南转西南
成为
从 17日的 12点(UTC)到 17日的 14点(UTC)
风速7节,风向西转西北
成为
从 17日的 16点(UTC)到 17日的 18点(UTC)
风速2节,风向多变

TAF: LDDU 170525Z 1706/1806 09006KT CAVOK TX22/1711Z TN16/1804Z BECMG 1708/1710 21006KT BECMG 1712/1714 29007KT BECMG 1716/1718 VRB02KT

超过4000个机场的气象观测和天气预报(METAR&TAF报告)。

可查询的气象台以黄色和红色小点在地图上表示。

将鼠标移到小点上方,可查看气象台名称。

然后点击查看天气观测和预报。

如需切换地图:点击带黑十字的绿色按钮放大地图;点击带横线的绿色按钮缩小地图;或者点击绿色箭头查看邻近地区的地图。


METAR-TAF: